Terminal Aerodrome Forecast
Issued by NWS San Angelo, TX

Home | Current Version | Previous Version | Text Only | Print | Product List | Glossary On
Versions: 1 2 3 4 5 6 7 8 9 10 11 12 13 14
000
FTUS44 KSJT 241100
TAFSJT
TAF
KSJT 241120Z 2412/2512 23012KT P6SM SCT250
     FM241500 35015G22KT P6SM FEW250
     FM250000 36007KT P6SM SKC=

USA.gov is the U.S. government's official web portal to all federal, state and local government web resources and services.